Time;durP1;ratioP1;P1;durP2;ratioP2;P2;SDS_P1;SDS_P2;PMS_P1;PMS_P2;Temp;Humidity;BMP_temperature;BMP_pressure;BME280_temperature;BME280_humidity;BME280_pressure;Samples;Min_cycle;Max_cycle;Signal;HPM_P1;HPM_P2
2022/01/21 00:01:06;;;;;;;6.38;1.60;;;;;;;;;;7384785;19;20006;-74
2022/01/21 00:03:31;;;;;;;5.88;1.70;;;;;;;;;;7387130;19;20014;-74
2022/01/21 00:05:57;;;;;;;6.20;2.47;;;;;;;;;;7387631;19;19998;-74
2022/01/21 00:08:22;;;;;;;3.90;1.58;;;;;;;;;;7386477;19;20356;-74
2022/01/21 00:10:48;;;;;;;6.55;1.88;;;;;;;;;;7384601;19;19998;-74
2022/01/21 00:13:19;;;;;;;7.18;1.98;;;;;;;;;;7386550;19;20140;-74
2022/01/21 00:15:44;;;;;;;6.10;1.77;;;;;;;;;;7385294;19;20041;-74
2022/01/21 00:18:11;;;;;;;5.00;1.60;;;;;;;;;;7383112;19;20015;-74
2022/01/21 00:31:32;;;;;;;4.70;1.73;;;;;;;;;;7385366;19;20023;-74
2022/01/21 00:33:57;;;;;;;6.72;1.75;;;;;;;;;;7384044;19;20353;-74
2022/01/21 00:36:23;;;;;;;7.82;1.55;;;;;;;;;;7382539;19;20006;-74
2022/01/21 00:38:48;;;;;;;8.35;3.72;;;;;;;;;;7384079;19;20018;-74
2022/01/21 00:41:19;;;;;;;4.50;1.88;;;;;;;;;;7384595;19;20429;-74
2022/01/21 00:43:44;;;;;;;6.63;1.95;;;;;;;;;;7383850;19;20513;-74
2022/01/21 00:46:11;;;;;;;4.72;1.58;;;;;;;;;;7384611;19;20111;-74
2022/01/21 00:48:37;;;;;;;11.15;1.90;;;;;;;;;;7382274;19;20034;-74
2022/01/21 00:51:03;;;;;;;7.25;2.25;;;;;;;;;;7384234;19;20025;-74
2022/01/21 00:53:28;;;;;;;7.35;2.08;;;;;;;;;;7381969;19;20021;-74
2022/01/21 00:55:53;;;;;;;8.73;1.45;;;;;;;;;;7381039;19;20009;-74
2022/01/21 00:58:19;;;;;;;6.75;1.73;;;;;;;;;;7381564;19;20037;-74
2022/01/21 01:00:44;;;;;;;6.10;1.92;;;;;;;;;;7383838;19;20493;-74
2022/01/21 01:03:10;;;;;;;5.65;1.73;;;;;;;;;;7384862;19;20019;-74
2022/01/21 01:05:35;;;;;;;5.55;2.15;;;;;;;;;;7384687;19;20031;-74
2022/01/21 01:08:03;;;;;;;4.90;2.03;;;;;;;;;;7385777;19;20025;-74
2022/01/21 01:10:58;;;;;;;6.40;1.73;;;;;;;;;;7387152;19;20353;-74
2022/01/21 01:21:36;;;;;;;5.72;1.90;;;;;;;;;;7392917;19;20043;-74
2022/01/21 01:29:22;;;;;;;7.50;2.28;;;;;;;;;;7389194;19;20282;-74
2022/01/21 01:31:48;;;;;;;7.75;1.73;;;;;;;;;;7389787;19;20019;-74
2022/01/21 01:34:14;;;;;;;5.95;2.17;;;;;;;;;;7390488;19;20007;-74
2022/01/21 01:36:42;;;;;;;3.38;1.40;;;;;;;;;;7388156;19;20024;-74
2022/01/21 01:41:40;;;;;;;4.00;1.80;;;;;;;;;;7390037;19;20444;-74
2022/01/21 01:49:37;;;;;;;4.53;1.30;;;;;;;;;;7386574;19;20850;-74
2022/01/21 01:52:08;;;;;;;3.67;1.67;;;;;;;;;;7390779;19;20108;-74
2022/01/21 01:54:37;;;;;;;4.63;1.33;;;;;;;;;;7387970;19;20011;-74
2022/01/21 01:57:03;;;;;;;4.15;1.55;;;;;;;;;;7389499;19;20063;-74
2022/01/21 01:59:29;;;;;;;6.10;1.50;;;;;;;;;;7386995;19;20024;-74
2022/01/21 02:01:57;;;;;;;2.95;1.45;;;;;;;;;;7391615;19;20023;-73
2022/01/21 02:04:24;;;;;;;3.40;1.38;;;;;;;;;;7388009;19;20902;-74
2022/01/21 02:06:50;;;;;;;4.50;1.60;;;;;;;;;;7389249;19;20086;-73
2022/01/21 02:09:16;;;;;;;4.10;1.80;;;;;;;;;;7386648;19;20007;-74
2022/01/21 02:11:41;;;;;;;6.30;1.60;;;;;;;;;;7390139;19;20018;-74
2022/01/21 02:14:10;;;;;;;3.38;1.08;;;;;;;;;;7388715;19;20014;-74
2022/01/21 02:22:23;;;;;;;2.08;0.95;;;;;;;;;;7389949;19;20096;-74
2022/01/21 02:24:58;;;;;;;6.78;1.58;;;;;;;;;;7389226;19;20019;-74
2022/01/21 02:27:25;;;;;;;3.75;1.35;;;;;;;;;;7389617;19;20329;-73
2022/01/21 02:29:52;;;;;;;5.95;1.67;;;;;;;;;;7386223;19;20085;-74
2022/01/21 02:32:19;;;;;;;5.63;1.70;;;;;;;;;;7391198;19;20370;-74
2022/01/21 02:34:45;;;;;;;5.05;1.50;;;;;;;;;;7388299;19;20114;-73
2022/01/21 02:37:16;;;;;;;3.17;1.30;;;;;;;;;;7390223;19;20332;-74
2022/01/21 02:39:42;;;;;;;3.60;1.65;;;;;;;;;;7385020;19;20011;-74
2022/01/21 02:42:08;;;;;;;8.18;1.73;;;;;;;;;;7389491;19;20524;-74
2022/01/21 02:44:34;;;;;;;4.32;1.40;;;;;;;;;;7386016;19;20007;-74
2022/01/21 02:47:02;;;;;;;4.18;1.92;;;;;;;;;;7387184;19;20502;-74
2022/01/21 02:49:27;;;;;;;5.75;1.65;;;;;;;;;;7385808;19;20570;-74
2022/01/21 02:51:54;;;;;;;4.35;1.55;;;;;;;;;;7387524;19;20031;-74
2022/01/21 02:54:20;;;;;;;4.18;1.60;;;;;;;;;;7386130;19;20014;-74
2022/01/21 02:56:45;;;;;;;5.93;1.77;;;;;;;;;;7386276;19;20011;-74
2022/01/21 02:59:11;;;;;;;7.47;1.58;;;;;;;;;;7386727;19;20464;-75
2022/01/21 03:01:40;;;;;;;7.65;1.60;;;;;;;;;;7387385;19;19998;-74
2022/01/21 03:04:07;;;;;;;3.08;1.33;;;;;;;;;;7387759;19;20007;-74
2022/01/21 03:06:36;;;;;;;3.25;1.63;;;;;;;;;;7386300;19;20627;-74
2022/01/21 03:09:03;;;;;;;7.82;2.05;;;;;;;;;;7383585;19;20010;-74
2022/01/21 03:11:29;;;;;;;6.35;1.80;;;;;;;;;;7387172;19;20025;-74
2022/01/21 03:13:55;;;;;;;4.82;1.58;;;;;;;;;;7385725;19;20011;-74
2022/01/21 03:16:21;;;;;;;6.00;1.83;;;;;;;;;;7383679;19;20065;-74
2022/01/21 03:18:46;;;;;;;6.43;1.75;;;;;;;;;;7384577;19;20014;-74
2022/01/21 03:21:16;;;;;;;3.20;1.40;;;;;;;;;;7386917;19;20006;-74
2022/01/21 03:23:46;;;;;;;8.20;1.80;;;;;;;;;;7381852;19;20117;-74
2022/01/21 03:26:14;;;;;;;7.97;1.90;;;;;;;;;;7387423;19;20396;-74
2022/01/21 03:28:40;;;;;;;5.05;1.63;;;;;;;;;;7384624;19;20010;-74
2022/01/21 03:31:05;;;;;;;6.55;1.80;;;;;;;;;;7386515;19;20009;-74
2022/01/21 03:33:30;;;;;;;5.82;1.60;;;;;;;;;;7379160;19;20011;-70
2022/01/21 03:35:56;;;;;;;5.10;1.80;;;;;;;;;;7381915;19;20082;-69
2022/01/21 03:38:25;;;;;;;8.90;1.90;;;;;;;;;;7381494;19;20105;-70
2022/01/21 03:40:50;;;;;;;5.25;1.95;;;;;;;;;;7382334;19;20355;-70
2022/01/21 03:43:16;;;;;;;2.50;1.25;;;;;;;;;;7379399;19;20010;-69
2022/01/21 03:45:41;;;;;;;5.32;1.35;;;;;;;;;;7379732;19;20016;-70
2022/01/21 03:48:06;;;;;;;4.07;1.38;;;;;;;;;;7377283;19;20007;-71
2022/01/21 03:50:32;;;;;;;3.80;1.48;;;;;;;;;;7376805;19;20005;-69
2022/01/21 03:52:59;;;;;;;4.45;1.15;;;;;;;;;;7379148;19;20337;-69
2022/01/21 03:55:25;;;;;;;6.22;1.83;;;;;;;;;;7381166;19;20428;-69
2022/01/21 03:57:51;;;;;;;3.50;1.38;;;;;;;;;;7381909;19;20070;-72
2022/01/21 04:00:21;;;;;;;5.43;1.60;;;;;;;;;;7378281;19;20035;-69
2022/01/21 04:02:47;;;;;;;7.70;1.83;;;;;;;;;;7378237;19;20302;-72
2022/01/21 04:05:12;;;;;;;6.18;1.65;;;;;;;;;;7381487;19;20026;-69
2022/01/21 04:07:38;;;;;;;8.35;1.73;;;;;;;;;;7380699;19;20011;-71
2022/01/21 04:10:05;;;;;;;5.10;1.80;;;;;;;;;;7380088;19;20006;-69
2022/01/21 04:12:30;;;;;;;4.03;1.60;;;;;;;;;;7380926;19;20006;-72
2022/01/21 04:14:58;;;;;;;7.32;1.63;;;;;;;;;;7380677;19;20009;-70
2022/01/21 04:17:23;;;;;;;6.18;1.98;;;;;;;;;;7379831;19;20010;-70
2022/01/21 04:19:48;;;;;;;5.63;2.00;;;;;;;;;;7376330;19;20316;-69
2022/01/21 04:22:14;;;;;;;5.00;1.77;;;;;;;;;;7382092;19;20452;-69
2022/01/21 04:24:40;;;;;;;8.45;2.15;;;;;;;;;;7382007;19;19995;-69
2022/01/21 04:27:05;;;;;;;6.55;1.77;;;;;;;;;;7381394;19;20043;-71
2022/01/21 04:29:30;;;;;;;3.85;1.70;;;;;;;;;;7377570;19;20006;-73
2022/01/21 04:31:55;;;;;;;5.13;1.67;;;;;;;;;;7375719;19;20039;-69
2022/01/21 04:34:21;;;;;;;5.20;1.77;;;;;;;;;;7379213;19;20026;-72
2022/01/21 04:36:46;;;;;;;5.32;1.83;;;;;;;;;;7378821;19;20078;-69
2022/01/21 04:39:19;;;;;;;7.28;1.90;;;;;;;;;;7379391;19;20010;-73
2022/01/21 04:49:47;;;;;;;3.92;1.55;;;;;;;;;;7392540;19;20017;-70
2022/01/21 04:52:12;;;;;;;3.25;1.33;;;;;;;;;;7392300;19;20015;-72
2022/01/21 04:54:38;;;;;;;5.13;1.17;;;;;;;;;;7393214;19;20313;-69
2022/01/21 04:57:05;;;;;;;3.70;0.60;;;;;;;;;;7388198;19;20475;-72
2022/01/21 04:59:31;;;;;;;1.25;0.30;;;;;;;;;;7391775;19;19999;-68
2022/01/21 05:01:57;;;;;;;2.45;0.43;;;;;;;;;;7394672;19;20464;-68
2022/01/21 05:04:22;;;;;;;1.52;0.30;;;;;;;;;;7394941;19;19994;-72
2022/01/21 05:06:49;;;;;;;4.18;0.55;;;;;;;;;;7393876;19;20025;-71
2022/01/21 05:09:16;;;;;;;2.03;0.40;;;;;;;;;;7388752;19;20069;-68
2022/01/21 05:11:43;;;;;;;1.10;0.30;;;;;;;;;;7392470;19;20017;-72
2022/01/21 05:14:22;;;;;;;3.13;0.60;;;;;;;;;;7392380;19;20317;-69
2022/01/21 05:16:49;;;;;;;1.20;0.60;;;;;;;;;;7393384;19;20002;-70
2022/01/21 05:19:17;;;;;;;2.17;0.28;;;;;;;;;;7391827;19;20010;-69
2022/01/21 05:21:48;;;;;;;1.35;0.50;;;;;;;;;;7393360;19;20013;-70
2022/01/21 05:24:16;;;;;;;3.40;0.52;;;;;;;;;;7395454;19;20037;-68
2022/01/21 05:26:52;;;;;;;5.50;0.73;;;;;;;;;;7393393;19;20108;-69
2022/01/21 05:29:18;;;;;;;2.67;0.63;;;;;;;;;;7391976;19;20431;-68
2022/01/21 05:31:46;;;;;;;2.42;0.68;;;;;;;;;;7389545;19;20014;-69
2022/01/21 05:34:12;;;;;;;1.73;0.55;;;;;;;;;;7392698;19;20443;-70
2022/01/21 05:36:40;;;;;;;5.80;0.65;;;;;;;;;;7393674;19;20027;-71
2022/01/21 05:39:09;;;;;;;2.50;0.45;;;;;;;;;;7390488;19;20007;-68
2022/01/21 05:41:35;;;;;;;2.20;0.50;;;;;;;;;;7390769;19;20077;-70
2022/01/21 05:44:05;;;;;;;5.85;0.70;;;;;;;;;;7391139;19;20308;-68
2022/01/21 05:49:15;;;;;;;1.48;0.68;;;;;;;;;;7390541;19;20039;-69
2022/01/21 05:51:45;;;;;;;2.53;0.60;;;;;;;;;;7391347;19;20018;-69
2022/01/21 05:54:12;;;;;;;1.13;0.65;;;;;;;;;;7385443;19;20041;-69
2022/01/21 05:56:38;;;;;;;1.40;0.55;;;;;;;;;;7379849;19;20061;-69
2022/01/21 05:59:05;;;;;;;2.25;0.93;;;;;;;;;;7377690;19;20513;-71
2022/01/21 06:01:32;;;;;;;2.80;0.60;;;;;;;;;;7380331;19;20007;-72
2022/01/21 06:03:58;;;;;;;4.55;1.40;;;;;;;;;;7381969;19;20010;-68
2022/01/21 06:06:23;;;;;;;1.42;0.50;;;;;;;;;;7383286;19;20013;-68
2022/01/21 06:08:48;;;;;;;3.22;1.20;;;;;;;;;;7382938;19;21085;-69
2022/01/21 06:11:14;;;;;;;1.90;1.05;;;;;;;;;;7383683;19;20036;-68
2022/01/21 06:13:39;;;;;;;4.32;1.95;;;;;;;;;;7383736;19;20007;-70
2022/01/21 06:16:05;;;;;;;6.30;1.65;;;;;;;;;;7380299;19;20585;-70
2022/01/21 06:18:30;;;;;;;5.28;1.67;;;;;;;;;;7382291;19;20015;-69
2022/01/21 06:20:55;;;;;;;4.30;1.48;;;;;;;;;;7382142;19;20007;-70
2022/01/21 06:23:21;;;;;;;3.15;1.08;;;;;;;;;;7382583;19;20011;-70
2022/01/21 06:25:46;;;;;;;0.95;0.57;;;;;;;;;;7379610;19;20139;-70
2022/01/21 06:28:11;;;;;;;1.73;1.00;;;;;;;;;;7379020;19;20050;-68
2022/01/21 06:30:37;;;;;;;3.60;1.30;;;;;;;;;;7381302;19;20007;-74
2022/01/21 06:33:03;;;;;;;5.68;0.77;;;;;;;;;;7377596;19;20046;-71
2022/01/21 06:35:28;;;;;;;3.22;0.90;;;;;;;;;;7379391;19;20595;-70
2022/01/21 06:37:54;;;;;;;1.50;0.60;;;;;;;;;;7381780;19;20007;-71
2022/01/21 06:40:20;;;;;;;2.78;1.02;;;;;;;;;;7379694;19;20014;-71
2022/01/21 06:42:46;;;;;;;2.88;1.23;;;;;;;;;;7379880;19;21484;-70
2022/01/21 06:45:12;;;;;;;4.55;0.85;;;;;;;;;;7380587;19;20010;-69
2022/01/21 06:47:37;;;;;;;1.00;0.80;;;;;;;;;;7382606;19;20010;-73
2022/01/21 06:50:03;;;;;;;3.30;1.00;;;;;;;;;;7375898;19;20479;-71
2022/01/21 06:52:30;;;;;;;0.85;0.63;;;;;;;;;;7380737;19;20007;-70
2022/01/21 06:54:56;;;;;;;3.20;0.68;;;;;;;;;;7380008;19;20003;-69
2022/01/21 06:57:22;;;;;;;2.47;0.88;;;;;;;;;;7382372;19;20039;-71
2022/01/21 06:59:48;;;;;;;4.53;0.80;;;;;;;;;;7378253;19;20105;-69
2022/01/21 07:02:14;;;;;;;3.58;1.05;;;;;;;;;;7380889;19;20002;-68
2022/01/21 07:04:40;;;;;;;3.47;1.42;;;;;;;;;;7380304;19;20100;-68
2022/01/21 07:07:05;;;;;;;6.35;1.20;;;;;;;;;;7381522;19;20003;-71
2022/01/21 07:09:30;;;;;;;5.72;1.80;;;;;;;;;;7381115;19;20078;-72
2022/01/21 07:11:56;;;;;;;6.43;1.25;;;;;;;;;;7382897;19;20067;-72
2022/01/21 07:14:22;;;;;;;7.13;2.15;;;;;;;;;;7378671;19;20018;-71
2022/01/21 07:16:48;;;;;;;6.38;1.45;;;;;;;;;;7377205;19;20002;-71
2022/01/21 07:19:14;;;;;;;3.50;1.05;;;;;;;;;;7377167;19;20006;-71
2022/01/21 07:21:40;;;;;;;3.13;1.08;;;;;;;;;;7379685;19;20003;-72
2022/01/21 07:24:06;;;;;;;3.70;1.13;;;;;;;;;;7378690;19;20020;-70
2022/01/21 07:26:31;;;;;;;3.38;1.25;;;;;;;;;;7382735;19;20018;-71
2022/01/21 07:28:56;;;;;;;2.55;0.77;;;;;;;;;;7381880;19;20030;-71
2022/01/21 07:31:21;;;;;;;3.78;1.02;;;;;;;;;;7378727;19;20006;-71
2022/01/21 07:33:47;;;;;;;1.85;0.80;;;;;;;;;;7383226;19;20006;-71
2022/01/21 07:36:12;;;;;;;1.45;0.65;;;;;;;;;;7382083;19;20040;-70
2022/01/21 07:38:38;;;;;;;5.15;1.70;;;;;;;;;;7377667;19;20028;-71
2022/01/21 07:41:04;;;;;;;1.90;0.75;;;;;;;;;;7382004;19;20291;-69
2022/01/21 07:43:30;;;;;;;1.60;0.63;;;;;;;;;;7381585;19;20409;-70
2022/01/21 07:45:55;;;;;;;2.38;0.60;;;;;;;;;;7382064;19;20451;-73
2022/01/21 07:48:20;;;;;;;2.50;0.98;;;;;;;;;;7378385;19;20070;-71
2022/01/21 07:50:46;;;;;;;4.75;0.77;;;;;;;;;;7382175;19;20014;-70
2022/01/21 07:53:11;;;;;;;2.30;0.90;;;;;;;;;;7381930;19;20460;-72
2022/01/21 07:55:36;;;;;;;4.95;1.15;;;;;;;;;;7376013;19;20422;-72
2022/01/21 07:58:03;;;;;;;1.52;0.98;;;;;;;;;;7378878;19;20013;-73
2022/01/21 08:00:30;;;;;;;1.85;0.77;;;;;;;;;;7380688;19;20041;-69
2022/01/21 08:02:55;;;;;;;3.85;1.40;;;;;;;;;;7384292;19;20086;-71
2022/01/21 08:05:21;;;;;;;4.38;0.95;;;;;;;;;;7384260;19;20027;-70
2022/01/21 08:07:46;;;;;;;4.75;0.75;;;;;;;;;;7383428;19;20460;-71
2022/01/21 08:10:11;;;;;;;5.15;1.65;;;;;;;;;;7381847;19;20031;-69
2022/01/21 08:12:37;;;;;;;3.30;1.08;;;;;;;;;;7382193;19;20015;-69
2022/01/21 08:15:02;;;;;;;4.20;1.02;;;;;;;;;;7379985;19;20698;-70
2022/01/21 08:17:29;;;;;;;6.13;1.20;;;;;;;;;;7379456;19;20006;-68
2022/01/21 08:19:58;;;;;;;5.32;1.42;;;;;;;;;;7381116;19;20033;-70
2022/01/21 08:22:25;;;;;;;4.30;1.17;;;;;;;;;;7381344;19;20021;-69
2022/01/21 08:24:50;;;;;;;3.83;1.30;;;;;;;;;;7381898;19;20031;-70
2022/01/21 08:27:15;;;;;;;5.93;2.08;;;;;;;;;;7381780;19;20006;-70
2022/01/21 08:29:41;;;;;;;7.60;1.83;;;;;;;;;;7378564;19;20006;-72
2022/01/21 08:32:07;;;;;;;6.78;3.17;;;;;;;;;;7381252;19;20082;-70
2022/01/21 08:34:34;;;;;;;9.20;3.65;;;;;;;;;;7379002;19;20070;-68
2022/01/21 08:37:01;;;;;;;7.05;2.45;;;;;;;;;;7378763;19;20736;-69
2022/01/21 08:39:26;;;;;;;3.47;1.50;;;;;;;;;;7378581;19;20017;-71
2022/01/21 08:41:52;;;;;;;5.65;1.40;;;;;;;;;;7382126;19;19999;-71
2022/01/21 08:44:17;;;;;;;3.72;1.60;;;;;;;;;;7382346;19;21124;-70
2022/01/21 08:46:43;;;;;;;6.53;1.65;;;;;;;;;;7382542;19;20098;-70
2022/01/21 08:49:09;;;;;;;4.53;1.33;;;;;;;;;;7380487;19;20002;-72
2022/01/21 08:51:47;;;;;;;3.38;1.30;;;;;;;;;;7380474;19;20039;-71
2022/01/21 08:54:14;;;;;;;3.47;1.42;;;;;;;;;;7381697;19;20408;-70
2022/01/21 08:56:39;;;;;;;4.63;1.80;;;;;;;;;;7378086;19;20003;-70
2022/01/21 08:59:04;;;;;;;10.23;1.90;;;;;;;;;;7377537;19;20523;-69
2022/01/21 09:01:30;;;;;;;6.20;2.35;;;;;;;;;;7385202;19;20002;-69
2022/01/21 09:03:55;;;;;;;4.25;1.30;;;;;;;;;;7383001;19;20084;-71
2022/01/21 09:06:23;;;;;;;12.48;2.58;;;;;;;;;;7378659;19;20009;-72
2022/01/21 09:08:48;;;;;;;7.90;1.98;;;;;;;;;;7377478;19;20770;-70
2022/01/21 09:11:13;;;;;;;5.90;1.55;;;;;;;;;;7380833;19;20001;-70
2022/01/21 09:13:41;;;;;;;9.00;1.90;;;;;;;;;;7379095;19;20018;-71
2022/01/21 09:16:07;;;;;;;12.48;2.45;;;;;;;;;;7378146;19;20319;-70
2022/01/21 09:18:44;;;;;;;4.20;1.80;;;;;;;;;;7379232;19;20010;-71
2022/01/21 09:21:09;;;;;;;6.97;1.75;;;;;;;;;;7378648;19;20023;-71
2022/01/21 09:23:35;;;;;;;10.65;2.22;;;;;;;;;;7381082;19;20468;-70
2022/01/21 09:26:00;;;;;;;5.47;2.33;;;;;;;;;;7380695;19;20027;-71
2022/01/21 09:28:25;;;;;;;10.10;2.30;;;;;;;;;;7381585;19;20079;-71
2022/01/21 09:30:51;;;;;;;5.57;1.55;;;;;;;;;;7386238;19;19995;-70
2022/01/21 09:33:16;;;;;;;4.50;1.42;;;;;;;;;;7389651;19;20014;-71
2022/01/21 09:35:41;;;;;;;5.72;2.20;;;;;;;;;;7384400;19;20460;-70
2022/01/21 09:38:07;;;;;;;6.88;1.67;;;;;;;;;;7385236;19;19998;-70
2022/01/21 09:40:38;;;;;;;11.20;2.17;;;;;;;;;;7384807;19;20439;-70
2022/01/21 09:43:07;;;;;;;4.63;1.50;;;;;;;;;;7387959;19;20535;-70
2022/01/21 09:45:32;;;;;;;7.50;1.50;;;;;;;;;;7387124;19;20510;-70
2022/01/21 09:47:59;;;;;;;6.22;1.45;;;;;;;;;;7387197;19;20011;-75
2022/01/21 09:50:25;;;;;;;2.72;1.27;;;;;;;;;;7385756;19;20020;-70
2022/01/21 09:52:53;;;;;;;7.57;1.55;;;;;;;;;;7386173;19;20436;-72
2022/01/21 09:55:22;;;;;;;5.43;2.28;;;;;;;;;;7386031;19;20003;-74
2022/01/21 09:57:50;;;;;;;13.80;2.60;;;;;;;;;;7389759;19;20013;-72
2022/01/21 10:00:18;;;;;;;7.13;1.80;;;;;;;;;;7384680;19;20010;-72
2022/01/21 10:02:45;;;;;;;10.63;1.63;;;;;;;;;;7385113;19;19994;-72
2022/01/21 10:05:11;;;;;;;7.40;1.52;;;;;;;;;;7383852;19;20002;-70
2022/01/21 10:07:39;;;;;;;4.40;1.17;;;;;;;;;;7385435;19;20488;-72
2022/01/21 10:10:08;;;;;;;4.45;1.13;;;;;;;;;;7385716;19;20305;-72
2022/01/21 10:12:38;;;;;;;12.38;2.22;;;;;;;;;;7387436;19;20078;-74
2022/01/21 10:15:05;;;;;;;5.82;1.30;;;;;;;;;;7387325;19;20010;-72
2022/01/21 10:17:31;;;;;;;4.85;1.67;;;;;;;;;;7374013;19;20481;-72
2022/01/21 10:20:16;;;;;;;3.03;0.82;;;;;;;;;;7375047;19;20446;-72
2022/01/21 10:23:00;;;;;;;9.55;1.90;;;;;;;;;;7379312;19;20031;-72
2022/01/21 10:25:27;;;;;;;3.25;1.38;;;;;;;;;;7381997;19;20014;-72
2022/01/21 10:27:52;;;;;;;2.35;0.95;;;;;;;;;;7381889;19;20015;-72
2022/01/21 10:30:28;;;;;;;5.75;1.30;;;;;;;;;;7376693;19;20062;-71
2022/01/21 10:32:54;;;;;;;;;;;;;;;;;;7380688;19;20085;-71
2022/01/21 10:35:26;;;;;;;2.08;1.08;;;;;;;;;;7381225;19;19914;-72
2022/01/21 10:37:55;;;;;;;3.50;1.23;;;;;;;;;;7375158;19;20095;-73
2022/01/21 10:40:21;;;;;;;9.00;1.75;;;;;;;;;;7377050;19;20049;-71
2022/01/21 10:42:48;;;;;;;7.95;1.85;;;;;;;;;;7376853;19;20006;-72
2022/01/21 10:45:13;;;;;;;6.35;1.30;;;;;;;;;;7378074;19;20014;-71
2022/01/21 10:47:41;;;;;;;6.05;1.30;;;;;;;;;;7376792;19;20046;-71
2022/01/21 10:50:08;;;;;;;9.27;1.63;;;;;;;;;;7376476;19;20069;-69
2022/01/21 10:52:54;;;;;;;6.43;1.20;;;;;;;;;;7378725;19;20488;-70
2022/01/21 10:55:36;;;;;;;6.82;1.45;;;;;;;;;;7376390;19;20493;-72
2022/01/21 10:58:04;;;;;;;4.15;1.23;;;;;;;;;;7373580;19;20086;-73
2022/01/21 11:00:30;;;;;;;6.20;1.30;;;;;;;;;;7374215;19;20360;-70
2022/01/21 11:02:55;;;;;;;6.25;1.65;;;;;;;;;;7378214;19;20010;-73
2022/01/21 11:05:21;;;;;;;5.57;1.38;;;;;;;;;;7375763;19;20058;-72
2022/01/21 11:08:07;;;;;;;7.13;1.80;;;;;;;;;;7376592;19;20010;-70
2022/01/21 11:10:36;;;;;;;5.60;1.70;;;;;;;;;;7374172;19;20018;-70
2022/01/21 11:13:15;;;;;;;5.53;1.98;;;;;;;;;;7375666;19;19998;-72
2022/01/21 11:15:48;;;;;;;5.85;1.42;;;;;;;;;;7377565;19;20006;-71
2022/01/21 11:18:17;;;;;;;5.43;1.83;;;;;;;;;;7377333;19;20018;-73
2022/01/21 11:20:47;;;;;;;7.18;1.85;;;;;;;;;;7371529;19;20010;-72
2022/01/21 11:23:13;;;;;;;8.27;1.90;;;;;;;;;;7371177;19;20416;-71
2022/01/21 11:25:41;;;;;;;5.70;1.83;;;;;;;;;;7378615;19;20036;-71
2022/01/21 11:28:08;;;;;;;4.43;2.10;;;;;;;;;;7373764;19;19998;-72
2022/01/21 11:30:33;;;;;;;6.50;1.67;;;;;;;;;;7373027;19;20017;-72
2022/01/21 11:32:59;;;;;;;6.25;1.70;;;;;;;;;;7371930;19;20070;-72
2022/01/21 11:35:26;;;;;;;6.18;1.30;;;;;;;;;;7375848;19;20020;-73
2022/01/21 11:37:52;;;;;;;6.47;1.65;;;;;;;;;;7376792;19;20006;-71
2022/01/21 11:40:18;;;;;;;5.93;1.70;;;;;;;;;;7373165;19;20038;-71
2022/01/21 11:42:45;;;;;;;8.45;2.15;;;;;;;;;;7368822;19;20006;-73
2022/01/21 11:50:46;;;;;;;5.20;2.22;;;;;;;;;;7377540;19;20010;-70
2022/01/21 11:53:12;;;;;;;5.43;2.28;;;;;;;;;;7374637;19;20035;-71
2022/01/21 11:55:45;;;;;;;4.05;1.50;;;;;;;;;;7375363;19;20039;-73
2022/01/21 11:58:15;;;;;;;6.85;1.75;;;;;;;;;;7369007;19;20007;-73
2022/01/21 12:00:41;;;;;;;4.72;1.05;;;;;;;;;;7371938;19;20010;-69
2022/01/21 12:03:07;;;;;;;5.18;1.60;;;;;;;;;;7376859;19;20021;-70
2022/01/21 12:05:36;;;;;;;6.60;2.00;;;;;;;;;;7380065;19;20066;-74
2022/01/21 12:08:06;;;;;;;4.07;1.40;;;;;;;;;;7377879;19;20010;-70
2022/01/21 12:10:35;;;;;;;4.35;1.02;;;;;;;;;;7375733;19;20010;-72
2022/01/21 12:13:11;;;;;;;5.25;1.25;;;;;;;;;;7372334;19;20010;-70
2022/01/21 12:20:45;;;;;;;4.90;1.38;;;;;;;;;;7375629;19;20479;-71
2022/01/21 12:23:18;;;;;;;6.20;1.50;;;;;;;;;;7379062;19;20005;-71
2022/01/21 12:26:08;;;;;;;3.63;1.17;;;;;;;;;;7377674;19;20361;-74
2022/01/21 12:28:34;;;;;;;4.63;1.23;;;;;;;;;;7377289;19;20002;-72
2022/01/21 12:30:59;;;;;;;4.03;1.60;;;;;;;;;;7377029;19;20365;-72
2022/01/21 12:33:51;;;;;;;5.43;1.20;;;;;;;;;;7379048;19;20090;-71
2022/01/21 12:36:23;;;;;;;7.35;1.98;;;;;;;;;;7378143;19;20669;-75
2022/01/21 12:41:17;;;;;;;2.00;0.82;;;;;;;;;;7377405;19;20098;-70
2022/01/21 12:43:48;;;;;;;5.07;1.60;;;;;;;;;;7381163;19;20504;-73
2022/01/21 12:46:17;;;;;;;2.60;1.08;;;;;;;;;;7377751;19;20007;-71
2022/01/21 12:48:45;;;;;;;6.22;1.10;;;;;;;;;;7378184;19;20015;-72
2022/01/21 12:51:15;;;;;;;6.32;1.45;;;;;;;;;;7379331;19;20479;-73
2022/01/21 12:55:55;;;;;;;7.00;1.45;;;;;;;;;;7375012;19;20395;-71
2022/01/21 12:56:31;;;;;;;4.47;1.20;;;;;;;;;;7374431;19;20017;-71
2022/01/21 12:58:58;;;;;;;6.38;1.08;;;;;;;;;;7374259;19;20022;-74
2022/01/21 13:01:24;;;;;;;2.95;1.10;;;;;;;;;;7377725;19;20012;-71
2022/01/21 13:04:05;;;;;;;4.85;0.90;;;;;;;;;;7378808;19;20522;-71
2022/01/21 13:06:43;;;;;;;3.42;1.55;;;;;;;;;;7378935;19;20499;-71
2022/01/21 13:09:13;;;;;;;5.45;1.50;;;;;;;;;;7379513;19;20018;-72
2022/01/21 13:11:42;;;;;;;5.78;1.40;;;;;;;;;;7380421;19;20006;-71
2022/01/21 13:14:24;;;;;;;5.40;1.20;;;;;;;;;;7382005;19;20023;-74
2022/01/21 13:17:05;;;;;;;8.90;1.73;;;;;;;;;;7376345;19;20037;-72
2022/01/21 13:19:44;;;;;;;4.95;1.23;;;;;;;;;;7378230;19;20017;-72
2022/01/21 13:22:24;;;;;;;6.55;1.20;;;;;;;;;;7384550;19;20019;-73
2022/01/21 13:25:07;;;;;;;5.00;1.45;;;;;;;;;;7381455;19;20530;-71
2022/01/21 13:27:34;;;;;;;5.63;1.60;;;;;;;;;;7382335;19;20021;-73
2022/01/21 13:30:06;;;;;;;5.15;1.50;;;;;;;;;;7378572;19;20405;-74
2022/01/21 13:32:31;;;;;;;7.72;1.40;;;;;;;;;;7378519;19;20007;-71
2022/01/21 13:35:25;;;;;;;3.05;1.30;;;;;;;;;;7379100;19;20018;-71
2022/01/21 13:38:05;;;;;;;6.47;1.50;;;;;;;;;;7380255;19;20014;-73
2022/01/21 13:40:35;;;;;;;12.95;1.85;;;;;;;;;;7380107;19;20010;-73
2022/01/21 13:43:13;;;;;;;3.40;0.98;;;;;;;;;;7381700;19;20551;-73
2022/01/21 13:45:41;;;;;;;3.22;1.67;;;;;;;;;;7381302;19;20093;-72
2022/01/21 13:48:08;;;;;;;2.67;1.42;;;;;;;;;;7382263;19;20027;-72
2022/01/21 13:50:34;;;;;;;3.90;1.38;;;;;;;;;;7376715;19;20478;-77
2022/01/21 13:53:02;;;;;;;4.38;1.65;;;;;;;;;;7381000;19;20011;-73
2022/01/21 13:55:39;;;;;;;5.82;1.23;;;;;;;;;;7378900;19;20003;-73
2022/01/21 13:58:08;;;;;;;3.90;1.13;;;;;;;;;;7377310;19;20015;-74
2022/01/21 14:00:45;;;;;;;3.05;1.15;;;;;;;;;;7377474;19;20014;-76
2022/01/21 14:03:22;;;;;;;3.50;1.30;;;;;;;;;;7381581;19;20043;-72
2022/01/21 14:05:49;;;;;;;5.25;1.10;;;;;;;;;;7380161;19;20361;-72
2022/01/21 14:08:30;;;;;;;7.07;1.20;;;;;;;;;;7382256;19;20358;-72
2022/01/21 14:11:10;;;;;;;4.32;0.98;;;;;;;;;;7378650;19;20012;-71
2022/01/21 14:13:39;;;;;;;5.78;1.00;;;;;;;;;;7379850;19;20044;-74
2022/01/21 14:16:08;;;;;;;3.05;1.05;;;;;;;;;;7373897;19;20014;-70
2022/01/21 14:18:35;;;;;;;6.10;1.20;;;;;;;;;;7378830;19;20007;-72
2022/01/21 14:21:13;;;;;;;7.35;1.70;;;;;;;;;;7375874;19;20019;-70
2022/01/21 14:23:39;;;;;;;2.92;1.25;;;;;;;;;;7379896;19;20070;-69
2022/01/21 14:26:08;;;;;;;7.85;2.33;;;;;;;;;;7378703;19;20459;-70
2022/01/21 14:28:41;;;;;;;5.05;1.77;;;;;;;;;;7377712;19;20360;-74
2022/01/21 14:31:06;;;;;;;6.45;1.63;;;;;;;;;;7378289;19;20002;-70
2022/01/21 14:33:42;;;;;;;4.55;1.50;;;;;;;;;;7378152;19;20022;-70
2022/01/21 14:36:13;;;;;;;9.38;1.67;;;;;;;;;;7378085;19;20032;-73
2022/01/21 14:38:49;;;;;;;6.90;2.28;;;;;;;;;;7379644;19;20023;-70
2022/01/21 14:41:21;;;;;;;9.38;1.50;;;;;;;;;;7378079;19;20003;-70
2022/01/21 14:43:54;;;;;;;5.45;1.42;;;;;;;;;;7376745;19;20022;-71
2022/01/21 14:46:28;;;;;;;6.93;1.20;;;;;;;;;;7382018;19;20347;-69
2022/01/21 14:49:02;;;;;;;9.93;1.67;;;;;;;;;;7378379;19;20010;-70
2022/01/21 14:51:35;;;;;;;7.28;1.52;;;;;;;;;;7380963;19;20022;-72
2022/01/21 14:54:08;;;;;;;3.80;1.25;;;;;;;;;;7379571;19;20014;-72
2022/01/21 14:56:34;;;;;;;5.47;1.20;;;;;;;;;;7374712;19;20010;-70
2022/01/21 14:59:07;;;;;;;4.80;1.00;;;;;;;;;;7374134;19;20018;-73
2022/01/21 15:01:33;;;;;;;4.88;1.23;;;;;;;;;;7376736;19;20022;-75
2022/01/21 15:04:11;;;;;;;8.90;2.45;;;;;;;;;;7375459;19;20042;-76
2022/01/21 15:06:36;;;;;;;10.20;2.63;;;;;;;;;;7379737;19;20014;-74
2022/01/21 15:09:02;;;;;;;6.13;1.88;;;;;;;;;;7369668;19;20010;-74
2022/01/21 15:14:43;;;;;;;5.68;1.90;;;;;;;;;;7373666;19;20041;-74
2022/01/21 15:17:15;;;;;;;5.57;1.90;;;;;;;;;;7369451;19;20390;-72
2022/01/21 15:19:42;;;;;;;6.57;1.60;;;;;;;;;;7369122;19;20018;-74
2022/01/21 15:22:14;;;;;;;6.10;1.60;;;;;;;;;;7371659;19;20445;-72
2022/01/21 15:24:41;;;;;;;1.95;1.10;;;;;;;;;;7378666;19;20043;-71
2022/01/21 15:27:07;;;;;;;6.55;1.63;;;;;;;;;;7378951;19;20015;-73
2022/01/21 15:29:33;;;;;;;5.50;1.52;;;;;;;;;;7378963;19;20018;-74
2022/01/21 15:31:58;;;;;;;4.55;1.67;;;;;;;;;;7381301;19;20014;-74
2022/01/21 15:34:23;;;;;;;4.10;1.52;;;;;;;;;;7379624;19;20515;-72
2022/01/21 15:36:49;;;;;;;7.20;1.75;;;;;;;;;;7380028;19;20467;-70
2022/01/21 15:39:15;;;;;;;6.28;1.92;;;;;;;;;;7380493;19;20480;-72
2022/01/21 15:41:42;;;;;;;5.88;1.98;;;;;;;;;;7381506;19;20010;-73
2022/01/21 15:44:07;;;;;;;7.28;2.80;;;;;;;;;;7378355;19;20391;-72
2022/01/21 15:46:33;;;;;;;6.55;1.80;;;;;;;;;;7381626;19;20424;-75
2022/01/21 15:48:59;;;;;;;7.13;2.25;;;;;;;;;;7382169;19;20088;-70
2022/01/21 15:51:24;;;;;;;5.63;2.15;;;;;;;;;;7383834;19;20010;-70
2022/01/21 15:53:50;;;;;;;9.95;2.30;;;;;;;;;;7380462;19;20437;-71